createdAt,value
2023-05-09T00:00:47.334Z,42.60
2023-05-09T00:01:47.384Z,42.61
2023-05-09T00:02:47.466Z,42.58
2023-05-09T00:03:47.359Z,42.58
2023-05-09T00:04:47.380Z,42.60
2023-05-09T00:05:47.365Z,42.60
2023-05-09T00:06:47.285Z,42.59
2023-05-09T00:07:47.306Z,42.60
2023-05-09T00:08:47.282Z,42.56
2023-05-09T00:09:47.293Z,42.61
2023-05-09T00:10:47.270Z,42.60
2023-05-09T00:11:47.265Z,42.60
2023-05-09T00:12:47.313Z,42.57
2023-05-09T00:13:47.254Z,42.60
2023-05-09T00:14:47.282Z,42.57
2023-05-09T00:15:47.313Z,42.55
2023-05-09T00:16:47.300Z,42.56
2023-05-09T00:17:47.221Z,42.59
2023-05-09T00:18:47.301Z,42.58
2023-05-09T00:19:47.219Z,42.57
2023-05-09T00:20:47.191Z,42.57
2023-05-09T00:21:47.185Z,42.55
2023-05-09T00:22:47.175Z,42.60
2023-05-09T00:23:47.192Z,42.60
2023-05-09T00:24:47.165Z,42.58
2023-05-09T00:25:47.159Z,42.58
2023-05-09T00:26:47.158Z,42.55
2023-05-09T00:27:47.106Z,42.56
2023-05-09T00:28:47.137Z,42.53
2023-05-09T00:29:47.132Z,42.56
2023-05-09T00:30:47.112Z,42.54
2023-05-09T00:31:47.143Z,42.55
2023-05-09T00:32:47.127Z,42.52
2023-05-09T00:33:47.109Z,42.48
2023-05-09T00:34:47.168Z,42.48
2023-05-09T00:35:47.092Z,42.49
2023-05-09T00:36:47.057Z,42.48
2023-05-09T00:37:47.075Z,42.49
2023-05-09T00:38:47.075Z,42.49
2023-05-09T00:39:47.066Z,42.51
2023-05-09T00:40:47.038Z,42.52
2023-05-09T00:41:47.052Z,42.51
2023-05-09T00:42:47.017Z,42.51
2023-05-09T00:43:47.005Z,42.53
2023-05-09T00:44:47.033Z,42.51
2023-05-09T00:45:47.023Z,42.52
2023-05-09T00:46:46.976Z,42.51
2023-05-09T00:47:47.029Z,42.52
2023-05-09T00:48:46.993Z,42.50
2023-05-09T00:49:46.956Z,42.52
2023-05-09T00:50:47.060Z,42.49
2023-05-09T00:51:46.964Z,42.50
2023-05-09T00:52:46.976Z,42.51
2023-05-09T00:53:46.949Z,42.49
2023-05-09T00:54:46.990Z,42.49
2023-05-09T00:55:46.936Z,42.50
2023-05-09T00:56:46.940Z,42.47
2023-05-09T00:57:46.915Z,42.46
2023-05-09T00:58:46.898Z,42.46
2023-05-09T00:59:46.885Z,42.42
2023-05-09T01:00:46.920Z,42.43
2023-05-09T01:01:47.029Z,42.42
2023-05-09T01:02:46.943Z,42.41
2023-05-09T01:03:46.978Z,42.42
2023-05-09T01:04:46.873Z,42.41
2023-05-09T01:05:46.824Z,42.41
2023-05-09T01:06:46.929Z,42.41
2023-05-09T01:07:46.810Z,42.40
2023-05-09T01:08:46.813Z,42.39
2023-05-09T01:09:46.796Z,42.41
2023-05-09T01:10:46.827Z,42.38
2023-05-09T01:11:46.810Z,42.39
2023-05-09T01:12:46.811Z,42.39
2023-05-09T01:13:46.800Z,42.40
2023-05-09T01:14:46.772Z,42.39
2023-05-09T01:15:46.843Z,42.40
2023-05-09T01:16:46.762Z,42.37
2023-05-09T01:17:46.808Z,42.37
2023-05-09T01:18:46.752Z,42.36
2023-05-09T01:19:46.776Z,42.35
2023-05-09T01:20:46.739Z,42.34
2023-05-09T01:21:46.708Z,42.37
2023-05-09T01:22:46.817Z,42.37
2023-05-09T01:23:46.730Z,42.33
2023-05-09T01:24:46.694Z,42.34
2023-05-09T01:25:46.705Z,42.34
2023-05-09T01:26:46.696Z,42.30
2023-05-09T01:27:46.683Z,42.33
2023-05-09T01:28:46.677Z,42.32
2023-05-09T01:29:46.672Z,42.33
2023-05-09T01:30:46.693Z,42.31
2023-05-09T01:31:46.845Z,42.31
2023-05-09T01:32:46.688Z,42.35
2023-05-09T01:33:46.686Z,42.34
2023-05-09T01:34:46.646Z,42.35
2023-05-09T01:35:46.657Z,42.33
2023-05-09T01:36:46.641Z,42.34
2023-05-09T01:37:46.645Z,42.33
2023-05-09T01:38:46.732Z,42.33
2023-05-09T01:39:46.604Z,42.31
2023-05-09T01:40:46.606Z,42.34
2023-05-09T01:41:46.609Z,42.33
2023-05-09T01:42:46.576Z,42.31
2023-05-09T01:43:46.642Z,42.30
2023-05-09T01:44:46.579Z,42.32
2023-05-09T01:45:46.598Z,42.31
2023-05-09T01:46:46.589Z,42.30
2023-05-09T01:47:46.566Z,42.29
2023-05-09T01:48:46.563Z,42.31
2023-05-09T01:49:46.536Z,42.29
2023-05-09T01:50:46.550Z,42.28
2023-05-09T01:51:46.555Z,42.29
2023-05-09T01:52:46.514Z,42.30
2023-05-09T01:53:46.503Z,42.31
2023-05-09T01:54:46.610Z,42.31
2023-05-09T01:55:46.522Z,42.32
2023-05-09T01:56:46.471Z,42.33
2023-05-09T01:57:46.500Z,42.31
2023-05-09T01:58:46.492Z,42.30
2023-05-09T01:59:46.492Z,42.32
2023-05-09T02:00:46.537Z,42.30
2023-05-09T02:01:46.466Z,42.29
2023-05-09T02:02:46.498Z,42.29
2023-05-09T02:03:46.442Z,42.28
2023-05-09T02:04:46.450Z,42.30
2023-05-09T02:05:46.457Z,42.31
2023-05-09T02:06:46.414Z,42.31
2023-05-09T02:07:46.437Z,42.33
2023-05-09T02:08:46.438Z,42.33
2023-05-09T02:09:46.432Z,42.30
2023-05-09T02:10:46.492Z,42.28
2023-05-09T02:11:46.412Z,42.30
2023-05-09T02:12:46.363Z,42.28
2023-05-09T02:13:46.377Z,42.29
2023-05-09T02:14:46.360Z,42.29
2023-05-09T02:15:46.390Z,42.28
2023-05-09T02:16:46.389Z,42.30
2023-05-09T02:17:46.358Z,42.30
2023-05-09T02:18:46.338Z,42.32
2023-05-09T02:19:46.310Z,42.29
2023-05-09T02:20:46.346Z,42.28
2023-05-09T02:21:46.315Z,42.29
2023-05-09T02:22:46.299Z,42.28
2023-05-09T02:23:46.289Z,42.31
2023-05-09T02:24:46.270Z,42.29
2023-05-09T02:25:46.279Z,42.27
2023-05-09T02:26:46.368Z,42.28
2023-05-09T02:27:46.256Z,42.29
2023-05-09T02:28:46.257Z,42.25
2023-05-09T02:29:46.230Z,42.25
2023-05-09T02:30:46.260Z,42.23
2023-05-09T02:31:46.295Z,42.25
2023-05-09T02:32:46.262Z,42.22
2023-05-09T02:33:46.207Z,42.24
2023-05-09T02:34:46.223Z,42.22
2023-05-09T02:35:46.200Z,42.23
2023-05-09T02:36:46.180Z,42.23
2023-05-09T02:37:46.207Z,42.22
2023-05-09T02:38:46.166Z,42.22
2023-05-09T02:39:46.184Z,42.22
2023-05-09T02:40:46.175Z,42.23
2023-05-09T02:41:46.146Z,42.24
2023-05-09T02:42:46.248Z,42.22
2023-05-09T02:43:46.149Z,42.24
2023-05-09T02:44:46.127Z,42.22
2023-05-09T02:45:46.149Z,42.23
2023-05-09T02:46:46.096Z,42.21
2023-05-09T02:47:46.130Z,42.22
2023-05-09T02:48:46.097Z,42.22
2023-05-09T02:49:46.076Z,42.22
2023-05-09T02:50:46.069Z,42.23
2023-05-09T02:51:46.074Z,42.19
2023-05-09T02:52:46.087Z,42.23
2023-05-09T02:53:46.056Z,42.25
2023-05-09T02:54:46.053Z,42.22
2023-05-09T02:55:46.035Z,42.20
2023-05-09T02:56:46.038Z,42.22
2023-05-09T02:57:46.002Z,42.19
2023-05-09T02:58:46.123Z,42.20
2023-05-09T02:59:46.033Z,42.21
2023-05-09T03:00:45.997Z,42.19
2023-05-09T03:01:47.013Z,42.20
2023-05-09T03:02:46.113Z,42.22
2023-05-09T03:03:46.111Z,42.24
2023-05-09T03:04:45.978Z,42.23
2023-05-09T03:05:45.971Z,42.23
2023-05-09T03:06:45.968Z,42.23
2023-05-09T03:07:45.986Z,42.20
2023-05-09T03:08:45.978Z,42.21
2023-05-09T03:09:45.951Z,42.23
2023-05-09T03:10:45.977Z,42.20
2023-05-09T03:11:45.943Z,42.23
2023-05-09T03:12:46.007Z,42.21
2023-05-09T03:13:45.970Z,42.25
2023-05-09T03:14:46.054Z,42.22
2023-05-09T03:15:46.004Z,42.23
2023-05-09T03:16:45.939Z,42.25
2023-05-09T03:17:46.013Z,42.23
2023-05-09T03:18:45.966Z,42.23
2023-05-09T03:19:45.942Z,42.26
2023-05-09T03:20:45.966Z,42.23
2023-05-09T03:21:45.937Z,42.21
2023-05-09T03:22:45.949Z,42.22
2023-05-09T03:23:45.957Z,42.21
2023-05-09T03:24:46.082Z,42.21
2023-05-09T03:25:45.907Z,42.19
2023-05-09T03:26:45.945Z,42.19
2023-05-09T03:27:45.944Z,42.22
2023-05-09T03:28:45.917Z,42.21
2023-05-09T03:29:45.944Z,42.22
2023-05-09T03:30:46.016Z,42.22
2023-05-09T03:31:45.916Z,42.22
2023-05-09T03:32:45.981Z,42.22
2023-05-09T03:33:45.928Z,42.21
2023-05-09T03:34:45.908Z,42.20
2023-05-09T03:35:45.939Z,42.19
2023-05-09T03:36:45.889Z,42.22
2023-05-09T03:37:45.901Z,42.24
2023-05-09T03:38:45.917Z,42.25
2023-05-09T03:39:45.929Z,42.23
2023-05-09T03:40:45.980Z,42.22
2023-05-09T03:41:45.913Z,42.24
2023-05-09T03:42:45.930Z,42.26
2023-05-09T03:43:45.914Z,42.25
2023-05-09T03:44:45.907Z,42.27
2023-05-09T03:45:45.926Z,42.27
2023-05-09T03:46:46.046Z,42.25
2023-05-09T03:47:45.961Z,42.26
2023-05-09T03:48:45.932Z,42.27
2023-05-09T03:49:45.923Z,42.30
2023-05-09T03:50:45.929Z,42.29
2023-05-09T03:51:45.932Z,42.25
2023-05-09T03:52:45.944Z,42.26
2023-05-09T03:53:45.911Z,42.29
2023-05-09T03:54:45.929Z,42.26
2023-05-09T03:55:45.904Z,42.28
2023-05-09T03:56:45.918Z,42.29
2023-05-09T03:57:45.935Z,42.22
2023-05-09T03:58:45.896Z,42.22
2023-05-09T03:59:45.918Z,42.22
2023-05-09T04:00:45.928Z,42.23
2023-05-09T04:01:45.925Z,42.23
2023-05-09T04:02:46.020Z,42.23
2023-05-09T04:03:46.001Z,42.23
2023-05-09T04:04:45.916Z,42.23
2023-05-09T04:05:45.921Z,42.25
2023-05-09T04:06:45.918Z,42.26
2023-05-09T04:07:45.904Z,42.23
2023-05-09T04:08:45.898Z,42.23
2023-05-09T04:09:45.922Z,42.22
2023-05-09T04:10:45.933Z,42.24
2023-05-09T04:11:45.930Z,42.25
2023-05-09T04:12:45.954Z,42.24
2023-05-09T04:13:45.915Z,42.25
2023-05-09T04:14:48.727Z,42.25
2023-05-09T04:15:45.930Z,42.24
2023-05-09T04:16:46.011Z,42.24
2023-05-09T04:17:45.956Z,42.26
2023-05-09T04:18:46.001Z,42.27
2023-05-09T04:19:45.901Z,42.28
2023-05-09T04:20:45.884Z,42.27
2023-05-09T04:21:45.894Z,42.26
2023-05-09T04:22:47.058Z,42.24
2023-05-09T04:23:46.012Z,42.24
2023-05-09T04:24:46.179Z,42.25
2023-05-09T04:25:46.021Z,42.25
2023-05-09T04:26:46.494Z,42.28
2023-05-09T04:27:45.846Z,42.27
2023-05-09T04:28:45.809Z,42.26
2023-05-09T04:29:45.823Z,42.26
2023-05-09T04:30:45.822Z,42.25
2023-05-09T04:31:45.929Z,42.26
2023-05-09T04:32:45.899Z,42.27
2023-05-09T04:33:45.779Z,42.25
2023-05-09T04:34:45.862Z,42.24
2023-05-09T04:35:45.772Z,42.23
2023-05-09T04:36:45.784Z,42.24
2023-05-09T04:37:45.759Z,42.25
2023-05-09T04:38:45.732Z,42.25
2023-05-09T04:39:45.754Z,42.24
2023-05-09T04:40:45.739Z,42.23
2023-05-09T04:41:45.730Z,42.24
2023-05-09T04:42:45.719Z,42.24
2023-05-09T04:43:45.732Z,42.22
2023-05-09T04:44:45.684Z,42.23
2023-05-09T04:45:45.691Z,42.18
2023-05-09T04:46:45.800Z,42.22
2023-05-09T04:47:45.725Z,42.23
2023-05-09T04:48:45.641Z,42.25
2023-05-09T04:49:45.683Z,42.23
2023-05-09T04:50:45.725Z,42.22
2023-05-09T04:51:45.626Z,42.23
2023-05-09T04:52:45.605Z,42.26
2023-05-09T04:53:45.601Z,42.22
2023-05-09T04:54:45.637Z,42.25
2023-05-09T04:55:45.593Z,42.25
2023-05-09T04:56:45.613Z,42.25
2023-05-09T04:57:45.627Z,42.22
2023-05-09T04:58:45.616Z,42.24
2023-05-09T04:59:45.570Z,42.19
2023-05-09T05:00:53.014Z,42.25
2023-05-09T05:01:45.606Z,42.23
2023-05-09T05:02:45.590Z,42.24
2023-05-09T05:03:45.505Z,42.21
2023-05-09T05:04:45.582Z,42.19
2023-05-09T05:05:45.605Z,42.19
2023-05-09T05:06:45.609Z,42.19
2023-05-09T05:07:45.516Z,42.21
2023-05-09T05:08:45.510Z,42.18
2023-05-09T05:09:45.505Z,42.19
2023-05-09T05:10:45.466Z,42.18
2023-05-09T05:11:57.119Z,42.15
2023-05-09T05:12:46.573Z,42.17
2023-05-09T05:13:45.458Z,42.16
2023-05-09T05:14:45.479Z,42.13
2023-05-09T05:15:45.503Z,42.13
2023-05-09T05:16:45.408Z,42.16
2023-05-09T05:17:45.536Z,42.12
2023-05-09T05:18:45.409Z,42.07
2023-05-09T05:19:45.425Z,42.10
2023-05-09T05:20:45.408Z,42.07
2023-05-09T05:21:45.411Z,42.11
2023-05-09T05:22:45.478Z,42.09
2023-05-09T05:23:45.401Z,42.07
2023-05-09T05:24:45.410Z,42.11
2023-05-09T05:25:45.380Z,42.10
2023-05-09T05:26:45.370Z,42.10
2023-05-09T05:27:45.382Z,42.10
2023-05-09T05:28:45.326Z,42.09
2023-05-09T05:29:45.353Z,42.11
2023-05-09T05:30:45.356Z,42.17
2023-05-09T05:31:45.438Z,42.58
2023-05-09T05:32:45.350Z,43.79
2023-05-09T05:33:45.288Z,44.08
2023-05-09T05:34:45.302Z,43.87
2023-05-09T05:35:45.304Z,43.45
2023-05-09T05:36:45.312Z,44.56
2023-05-09T05:37:46.095Z,44.89
2023-05-09T05:38:45.353Z,45.53
2023-05-09T05:39:45.257Z,45.89
2023-05-09T05:40:45.267Z,45.37
2023-05-09T05:41:45.561Z,45.28
2023-05-09T05:42:45.273Z,45.46
2023-05-09T05:43:45.246Z,45.55
2023-05-09T05:44:45.224Z,45.28
2023-05-09T05:47:04.288Z,45.33
2023-05-09T05:48:04.173Z,45.56
2023-05-09T05:49:04.100Z,46.17
2023-05-09T05:50:04.101Z,46.53
2023-05-09T05:51:04.071Z,46.56
2023-05-09T05:52:04.078Z,47.00
2023-05-09T05:53:04.047Z,47.34
2023-05-09T05:54:04.153Z,47.54
2023-05-09T05:55:04.028Z,47.81
2023-05-09T05:56:04.043Z,48.11
2023-05-09T05:57:04.039Z,47.90
2023-05-09T05:58:04.006Z,47.87
2023-05-09T05:59:04.039Z,47.69
2023-05-09T06:00:03.991Z,47.50
2023-05-09T06:01:04.018Z,47.27
2023-05-09T06:02:04.391Z,47.40
2023-05-09T06:03:04.058Z,47.41
2023-05-09T06:04:04.040Z,47.60
2023-05-09T06:05:03.967Z,48.13
2023-05-09T06:06:03.966Z,48.60
2023-05-09T06:07:04.290Z,48.97
2023-05-09T06:08:03.970Z,49.22
2023-05-09T06:09:03.925Z,49.19
2023-05-09T06:10:04.029Z,49.36
2023-05-09T06:11:03.940Z,49.74
2023-05-09T06:12:03.935Z,49.18
2023-05-09T06:13:03.960Z,49.04
2023-05-09T06:14:03.927Z,48.63
2023-05-09T06:15:03.942Z,48.11
2023-05-09T06:16:18.580Z,47.95
2023-05-09T06:17:04.922Z,47.62
2023-05-09T06:18:04.309Z,47.42
2023-05-09T06:19:03.891Z,47.22
2023-05-09T06:20:03.926Z,47.15
2023-05-09T06:21:03.884Z,47.04
2023-05-09T06:22:03.876Z,46.95
2023-05-09T06:23:03.853Z,46.77
2023-05-09T06:24:10.250Z,46.47
2023-05-09T06:25:04.858Z,46.51
2023-05-09T06:26:03.933Z,46.53
2023-05-09T06:27:03.840Z,46.68
2023-05-09T06:28:03.833Z,46.69
2023-05-09T06:29:03.838Z,46.83
2023-05-09T06:30:14.063Z,46.69
2023-05-09T06:31:04.820Z,46.68
2023-05-09T06:32:03.806Z,46.63
2023-05-09T06:33:03.837Z,46.62
2023-05-09T06:34:03.862Z,46.66
2023-05-09T06:35:03.756Z,46.55
2023-05-09T06:36:03.772Z,46.57
2023-05-09T06:37:03.741Z,46.49
2023-05-09T06:38:03.741Z,46.46
2023-05-09T06:39:03.710Z,46.65
2023-05-09T06:40:03.810Z,46.51
2023-05-09T06:41:03.841Z,46.52
2023-05-09T06:42:03.888Z,46.32
2023-05-09T06:43:03.968Z,46.27
2023-05-09T06:44:03.995Z,46.31
2023-05-09T06:45:04.084Z,46.30
2023-05-09T06:46:04.137Z,46.27
2023-05-09T06:47:04.164Z,46.19
2023-05-09T06:48:04.280Z,46.15
2023-05-09T06:49:04.308Z,46.18
2023-05-09T06:50:04.300Z,46.18
2023-05-09T06:51:04.353Z,46.37
2023-05-09T06:52:04.396Z,46.43
2023-05-09T06:53:04.807Z,46.38
2023-05-09T06:54:04.540Z,46.26
2023-05-09T06:55:04.578Z,46.44
2023-05-09T06:56:04.626Z,46.72
2023-05-09T06:57:04.689Z,46.50
2023-05-09T06:58:04.825Z,46.47
2023-05-09T06:59:04.803Z,46.32
2023-05-09T07:00:04.872Z,46.14
2023-05-09T07:01:04.933Z,46.06
2023-05-09T07:02:04.990Z,46.08
2023-05-09T07:03:05.331Z,46.07
2023-05-09T07:04:05.044Z,46.07
2023-05-09T07:05:05.188Z,46.21
2023-05-09T07:06:05.201Z,46.00
2023-05-09T07:07:05.218Z,45.92
2023-05-09T07:08:05.324Z,45.95
2023-05-09T07:09:44.940Z,46.20
2023-05-09T07:10:44.910Z,46.38
2023-05-09T07:11:44.926Z,46.36
2023-05-09T07:12:44.930Z,46.31
2023-05-09T07:13:45.165Z,46.49
2023-05-09T07:14:44.894Z,46.53
2023-05-09T07:15:45.050Z,46.92
2023-05-09T07:16:44.948Z,47.51
2023-05-09T07:17:44.939Z,47.13
2023-05-09T07:18:44.907Z,46.50
2023-05-09T07:19:44.851Z,46.40
2023-05-09T07:20:44.833Z,46.39
2023-05-09T07:21:44.822Z,46.38
2023-05-09T07:22:44.887Z,46.38
2023-05-09T07:23:44.835Z,46.38
2023-05-09T07:24:44.806Z,46.38
2023-05-09T07:25:44.794Z,46.30
2023-05-09T07:26:44.844Z,46.13
2023-05-09T07:27:44.808Z,46.05
2023-05-09T07:28:45.140Z,45.91
2023-05-09T07:29:44.859Z,45.85
2023-05-09T07:30:44.826Z,45.73
2023-05-09T07:31:44.800Z,45.60
2023-05-09T07:32:44.743Z,45.77
2023-05-09T07:33:45.116Z,48.42
2023-05-09T07:34:44.786Z,47.24
2023-05-09T07:35:44.741Z,47.41
2023-05-09T07:36:44.747Z,47.74
2023-05-09T07:37:44.730Z,48.36
2023-05-09T07:38:45.103Z,48.31
2023-05-09T07:39:44.705Z,48.33
2023-05-09T07:40:44.689Z,48.70
2023-05-09T07:41:44.692Z,49.00
2023-05-09T07:42:44.676Z,49.37
2023-05-09T07:43:45.103Z,48.92
2023-05-09T07:44:44.689Z,48.33
2023-05-09T07:45:44.694Z,48.60
2023-05-09T07:46:44.656Z,48.55
2023-05-09T07:47:44.715Z,48.66
2023-05-09T07:48:44.679Z,48.58
2023-05-09T07:49:44.683Z,48.38
2023-05-09T07:50:44.637Z,48.53
2023-05-09T07:51:44.628Z,48.40
2023-05-09T07:52:44.604Z,48.41
2023-05-09T07:53:44.607Z,48.31
2023-05-09T07:54:44.609Z,48.24
2023-05-09T07:55:44.588Z,48.00
2023-05-09T07:56:44.597Z,48.01
2023-05-09T07:57:44.604Z,47.83
2023-05-09T07:58:44.554Z,48.04
2023-05-09T07:59:44.582Z,47.93
2023-05-09T08:00:44.545Z,47.86
2023-05-09T08:01:44.667Z,47.75
2023-05-09T08:02:44.766Z,47.92
2023-05-09T08:03:44.755Z,47.69
2023-05-09T08:04:44.780Z,47.92
2023-05-09T08:05:44.833Z,47.77
2023-05-09T08:06:44.887Z,47.81
2023-05-09T08:07:44.954Z,47.74
2023-05-09T08:08:44.930Z,47.78
2023-05-09T08:09:44.981Z,47.69
2023-05-09T08:10:45.034Z,47.69
2023-05-09T08:11:45.023Z,47.77
2023-05-09T08:12:45.065Z,47.77
2023-05-09T08:13:45.096Z,47.73
2023-05-09T08:14:45.071Z,47.69
2023-05-09T08:15:45.109Z,47.68
2023-05-09T08:16:45.126Z,47.65
2023-05-09T08:17:45.272Z,47.65
2023-05-09T08:18:45.630Z,47.76
2023-05-09T08:19:46.128Z,47.84
2023-05-09T08:20:45.154Z,47.89
2023-05-09T08:21:45.177Z,47.93
2023-05-09T08:22:45.172Z,47.82
2023-05-09T08:23:45.674Z,47.87
2023-05-09T08:24:45.197Z,47.94
2023-05-09T08:25:45.209Z,47.88
2023-05-09T08:26:45.212Z,47.93
2023-05-09T08:27:45.213Z,48.03
2023-05-09T08:28:45.246Z,48.11
2023-05-09T08:29:45.660Z,48.29
2023-05-09T08:30:45.233Z,48.27
2023-05-09T08:31:45.325Z,48.45
2023-05-09T08:32:45.381Z,47.85
2023-05-09T08:33:45.387Z,46.66
2023-05-09T08:34:45.683Z,46.02
2023-05-09T08:35:45.379Z,45.55
2023-05-09T08:36:45.403Z,45.98
2023-05-09T08:37:45.408Z,46.10
2023-05-09T08:38:45.421Z,45.35
2023-05-09T08:39:45.464Z,45.00
2023-05-09T08:40:45.475Z,44.76
2023-05-09T08:41:45.533Z,44.62
2023-05-09T08:42:45.566Z,44.45
2023-05-09T08:43:45.574Z,44.42
2023-05-09T08:44:45.569Z,44.35
2023-05-09T08:45:45.621Z,44.09
2023-05-09T08:46:45.686Z,44.04
2023-05-09T08:47:45.695Z,43.96
2023-05-09T08:48:45.742Z,44.09
2023-05-09T08:49:45.832Z,44.10
2023-05-09T08:50:45.800Z,46.15
2023-05-09T08:51:45.812Z,46.54
2023-05-09T08:52:45.830Z,46.98
2023-05-09T08:53:45.869Z,47.57
2023-05-09T08:54:46.161Z,47.36
2023-05-09T08:55:46.028Z,47.07
2023-05-09T08:56:45.982Z,46.90
2023-05-09T08:57:45.977Z,47.43
2023-05-09T08:58:45.978Z,47.35
2023-05-09T08:59:46.008Z,47.14
2023-05-09T09:00:46.028Z,47.32
2023-05-09T09:01:46.076Z,47.28
2023-05-09T09:02:46.060Z,47.69
2023-05-09T09:03:46.028Z,47.17
2023-05-09T09:04:46.172Z,47.40
2023-05-09T09:05:46.216Z,47.04
2023-05-09T09:06:46.205Z,47.23
2023-05-09T09:07:46.231Z,47.41
2023-05-09T09:08:46.319Z,47.24
2023-05-09T09:09:46.342Z,47.20
2023-05-09T09:10:46.400Z,47.36
2023-05-09T09:11:46.469Z,47.25
2023-05-09T09:12:48.685Z,47.34
2023-05-09T09:13:46.535Z,46.51
2023-05-09T09:14:46.524Z,46.94
2023-05-09T09:15:46.485Z,46.96
2023-05-09T09:16:46.484Z,46.94
2023-05-09T09:17:46.512Z,46.90
2023-05-09T09:18:46.495Z,46.77
2023-05-09T09:19:46.495Z,46.66
2023-05-09T09:20:47.576Z,46.69
2023-05-09T09:21:46.572Z,46.57
2023-05-09T09:22:46.434Z,46.50
2023-05-09T09:23:46.422Z,46.53
2023-05-09T09:24:47.456Z,46.41
2023-05-09T09:25:46.409Z,46.33
2023-05-09T09:26:46.433Z,46.34
2023-05-09T09:27:46.409Z,46.10
2023-05-09T09:28:46.385Z,46.15
2023-05-09T09:29:46.392Z,46.36
2023-05-09T09:30:46.393Z,46.40
2023-05-09T09:31:46.482Z,46.53
2023-05-09T09:32:46.410Z,46.54
2023-05-09T09:33:46.339Z,46.66
2023-05-09T09:34:46.365Z,46.65
2023-05-09T09:35:46.326Z,46.57
2023-05-09T09:36:46.371Z,46.69
2023-05-09T09:37:46.412Z,46.73
2023-05-09T09:38:46.386Z,46.72
2023-05-09T09:39:46.688Z,46.87
2023-05-09T09:40:46.493Z,47.08
2023-05-09T09:41:46.564Z,47.18
2023-05-09T09:42:46.602Z,47.54
2023-05-09T09:43:46.681Z,47.50
2023-05-09T09:44:47.182Z,47.08
2023-05-09T09:45:46.723Z,46.84
2023-05-09T09:46:46.743Z,45.33
2023-05-09T09:47:46.778Z,43.81
2023-05-09T09:48:46.777Z,45.33
2023-05-09T09:49:46.834Z,44.03
2023-05-09T09:50:47.193Z,43.22
2023-05-09T09:51:46.927Z,43.32
2023-05-09T09:52:46.936Z,43.65
2023-05-09T09:53:47.031Z,44.03
2023-05-09T09:54:46.903Z,44.68
2023-05-09T09:55:46.894Z,44.96
2023-05-09T09:56:46.936Z,44.36
2023-05-09T09:57:46.982Z,44.74
2023-05-09T09:58:47.034Z,44.72
2023-05-09T09:59:47.041Z,44.41
2023-05-09T10:00:47.204Z,44.44
2023-05-09T10:01:47.239Z,43.88
2023-05-09T10:02:48.331Z,43.86
2023-05-09T10:03:47.336Z,44.07
2023-05-09T10:04:47.474Z,44.04
2023-05-09T10:05:47.457Z,44.18
2023-05-09T10:06:48.104Z,43.85
2023-05-09T10:07:47.595Z,43.86
2023-05-09T10:08:47.669Z,43.71
2023-05-09T10:09:47.788Z,43.89
2023-05-09T10:10:48.658Z,43.54
2023-05-09T10:11:47.812Z,43.43
2023-05-09T10:12:47.894Z,42.98
2023-05-09T10:13:47.978Z,43.39
2023-05-09T10:14:48.028Z,43.33
2023-05-09T10:15:53.738Z,43.13
2023-05-09T10:16:49.114Z,42.67
2023-05-09T10:17:48.132Z,42.59
2023-05-09T10:18:48.182Z,43.04
2023-05-09T10:19:48.676Z,43.16
2023-05-09T10:20:48.085Z,43.28
2023-05-09T10:21:48.003Z,43.25
2023-05-09T10:22:48.005Z,43.36
2023-05-09T10:23:48.026Z,43.36
2023-05-09T10:24:48.099Z,43.35
2023-05-09T10:25:49.093Z,43.35
2023-05-09T10:26:48.174Z,43.34
2023-05-09T10:27:48.247Z,42.97
2023-05-09T10:28:48.274Z,43.12
2023-05-09T10:29:48.362Z,43.07
2023-05-09T10:30:48.442Z,42.99
2023-05-09T10:31:48.591Z,42.65
2023-05-09T10:32:48.611Z,42.80
2023-05-09T10:33:48.601Z,42.98
2023-05-09T10:34:49.181Z,43.02
2023-05-09T10:35:48.731Z,42.84
2023-05-09T10:36:48.844Z,42.59
2023-05-09T10:37:48.841Z,42.60
2023-05-09T10:38:48.940Z,42.76
2023-05-09T10:39:48.955Z,41.92
2023-05-09T10:40:49.226Z,41.74
2023-05-09T10:41:49.202Z,41.56
2023-05-09T10:42:49.131Z,41.33
2023-05-09T10:43:49.218Z,41.44
2023-05-09T10:44:49.183Z,41.61
2023-05-09T10:45:49.208Z,41.70
2023-05-09T10:46:49.254Z,41.65
2023-05-09T10:47:49.338Z,41.88
2023-05-09T10:48:49.336Z,41.58
2023-05-09T10:49:49.411Z,41.94
2023-05-09T10:50:49.497Z,41.73
2023-05-09T10:51:49.532Z,41.59
2023-05-09T10:52:49.613Z,41.50
2023-05-09T10:53:49.682Z,41.49
2023-05-09T10:54:49.727Z,41.32
2023-05-09T10:55:49.758Z,41.33
2023-05-09T10:56:49.809Z,41.25
2023-05-09T10:57:49.953Z,41.31
2023-05-09T10:58:49.848Z,41.34
2023-05-09T10:59:49.906Z,41.35
2023-05-09T11:00:49.935Z,41.42
2023-05-09T11:01:49.977Z,41.39
2023-05-09T11:02:50.036Z,41.44
2023-05-09T11:03:50.068Z,41.48
2023-05-09T11:04:49.994Z,41.56
2023-05-09T11:05:50.219Z,41.55
2023-05-09T11:06:50.025Z,41.46
2023-05-09T11:07:49.973Z,41.45
2023-05-09T11:08:50.030Z,41.50
2023-05-09T11:09:50.045Z,41.57
2023-05-09T11:10:50.043Z,41.58
2023-05-09T11:11:50.084Z,41.55
2023-05-09T11:12:50.206Z,41.60
2023-05-09T11:13:50.313Z,41.69
2023-05-09T11:14:50.266Z,41.43
2023-05-09T11:15:50.360Z,41.60
2023-05-09T11:16:50.383Z,41.69
2023-05-09T11:17:50.457Z,41.63
2023-05-09T11:18:50.511Z,41.46
2023-05-09T11:19:50.574Z,41.66
2023-05-09T11:20:50.625Z,41.64
2023-05-09T11:21:50.763Z,41.46
2023-05-09T11:22:50.703Z,41.45
2023-05-09T11:23:51.997Z,41.30
2023-05-09T11:24:50.756Z,41.38
2023-05-09T11:25:51.278Z,41.46
2023-05-09T11:26:51.696Z,41.48
2023-05-09T11:27:50.808Z,41.47
2023-05-09T11:28:50.716Z,41.51
2023-05-09T11:29:50.821Z,41.47
2023-05-09T11:30:50.685Z,42.00
2023-05-09T11:31:50.714Z,42.18
2023-05-09T11:32:50.814Z,41.81
2023-05-09T11:33:50.742Z,41.88
2023-05-09T11:34:50.650Z,41.30
2023-05-09T11:35:50.761Z,39.59
2023-05-09T11:36:50.671Z,39.89
2023-05-09T11:37:50.659Z,39.73
2023-05-09T11:38:50.636Z,39.32
2023-05-09T11:39:50.658Z,38.92
2023-05-09T11:40:50.651Z,39.80
2023-05-09T11:41:50.617Z,39.26
2023-05-09T11:42:50.628Z,38.95
2023-05-09T11:43:50.616Z,38.83
2023-05-09T11:44:50.629Z,38.64
2023-05-09T11:45:51.080Z,38.43
2023-05-09T11:46:50.939Z,38.29
2023-05-09T11:47:50.642Z,38.10
2023-05-09T11:48:50.572Z,37.97
2023-05-09T11:49:50.581Z,37.84
2023-05-09T11:50:50.567Z,37.91
2023-05-09T11:51:50.568Z,37.91
2023-05-09T11:52:50.526Z,37.96
2023-05-09T11:53:50.568Z,37.90
2023-05-09T11:54:50.550Z,37.87
2023-05-09T11:55:50.566Z,37.83
2023-05-09T11:56:50.537Z,37.86
2023-05-09T11:57:50.519Z,37.77
2023-05-09T11:58:50.496Z,37.83
2023-05-09T11:59:50.506Z,37.76
2023-05-09T12:00:50.558Z,37.76
2023-05-09T12:01:50.568Z,37.79
2023-05-09T12:02:50.516Z,37.76
2023-05-09T12:03:50.642Z,37.71
2023-05-09T12:04:50.465Z,37.70
2023-05-09T12:05:50.484Z,37.68
2023-05-09T12:06:50.460Z,37.69
2023-05-09T12:07:50.415Z,37.67
2023-05-09T12:08:50.476Z,37.62
2023-05-09T12:09:50.440Z,37.55
2023-05-09T12:10:50.446Z,37.55
2023-05-09T12:11:50.449Z,37.61
2023-05-09T12:12:50.476Z,37.53
2023-05-09T12:13:50.400Z,37.50
2023-05-09T12:14:50.378Z,37.47
2023-05-09T12:15:50.497Z,37.42
2023-05-09T12:16:50.752Z,37.42
2023-05-09T12:17:52.018Z,37.30
2023-05-09T12:18:50.389Z,37.32
2023-05-09T12:19:50.349Z,37.32
2023-05-09T12:20:50.389Z,37.38
2023-05-09T12:21:50.337Z,37.29
2023-05-09T12:22:50.342Z,37.29
2023-05-09T12:23:52.494Z,37.27
2023-05-09T12:24:50.297Z,37.24
2023-05-09T12:25:50.377Z,35.27
2023-05-09T12:26:50.319Z,35.44
2023-05-09T12:27:50.298Z,35.91
2023-05-09T12:28:50.301Z,35.36
2023-05-09T12:29:50.301Z,36.19
2023-05-09T12:30:50.268Z,35.88
2023-05-09T12:31:50.338Z,36.35
2023-05-09T12:32:50.319Z,36.22
2023-05-09T12:33:50.376Z,35.97
2023-05-09T12:34:50.245Z,36.11
2023-05-09T12:35:50.370Z,36.20
2023-05-09T12:36:50.254Z,35.96
2023-05-09T12:37:50.264Z,35.81
2023-05-09T12:38:50.245Z,35.69
2023-05-09T12:39:50.230Z,35.53
2023-05-09T12:40:50.222Z,35.53
2023-05-09T12:42:01.208Z,35.38
2023-05-09T12:42:51.214Z,35.44
2023-05-09T12:43:50.214Z,35.38
2023-05-09T12:44:50.154Z,35.21
2023-05-09T12:45:50.173Z,35.10
2023-05-09T12:46:50.273Z,35.09
2023-05-09T12:47:50.186Z,35.15
2023-05-09T12:48:50.194Z,35.03
2023-05-09T12:49:50.243Z,35.01
2023-05-09T12:50:50.138Z,35.24
2023-05-09T12:51:50.145Z,35.12
2023-05-09T12:53:02.607Z,35.05
2023-05-09T12:53:51.113Z,35.14
2023-05-09T12:54:50.104Z,35.30